Main page
METAR-TAF:

METAR-TAF

Airports :

Durham, England

Durham Tees Valley Airport

latitude: 54-31N, longitude: 001-25W, elevation: 37 m

Current weather observation

The report was made 12 minutes ago, at 16:20 UTC
Wind 4 kt from the North/Northeast, varying between Northwest and East
Temperature 21°C
Humidity 60%
Pressure 1017 hPa
Visibility 10 km or more
Scattered clouds at a height of 3300 ft

METAR: EGNV 281620Z 03004KT 320V080 9999 SCT033 21/13 Q1017

Time: 17:32 (16:32 UTC)

Forecast

The report was made 2 hours and 34 minutes ago, at 13:58 UTC
Forecast valid from 28 at 15 UTC to 28 at 21 UTC
Wind 9 kt from the North
Visibility 10 km or more
Scattered clouds at a height of 3000 ft
Becoming
from 28 at 15 UTC to 28 at 17 UTC
Wind 10 kt from the Northeast
Probability 40% :
Temporary
from 28 at 15 UTC to 28 at 18 UTC
Broken clouds at a height of 1200 ft

TAF: EGNV 281358Z 2815/2821 35009KT 9999 SCT030 BECMG 2815/2817 05010KT PROB40 TEMPO 2815/2818 BKN012

Weather observations and forecasts of more than 4000 airports (METAR and TAF reports).

The available stations are represented by yellow and red dots on the map.

Hover mouse over dot to see the name of the station.

Then click to see weather observations and forecasts.

To change the map : click on the green buttons with a black cross to zoom in, on the green button with a dash to zoom out, or on the green arrows for adjacent maps.


METAR-TAF: